createdAt,value
2022-11-15T00:01:19.073Z,13.20
2022-11-15T00:03:48.792Z,13.20
2022-11-15T00:06:16.994Z,13.20
2022-11-15T00:08:45.269Z,13.20
2022-11-15T00:11:14.811Z,13.20
2022-11-15T00:13:43.242Z,13.20
2022-11-15T00:16:12.248Z,13.20
2022-11-15T00:18:42.428Z,13.20
2022-11-15T00:21:15.313Z,13.20
2022-11-15T00:23:43.592Z,13.20
2022-11-15T00:26:14.485Z,13.20
2022-11-15T00:28:43.207Z,13.20
2022-11-15T00:31:14.456Z,13.20
2022-11-15T00:33:44.978Z,13.20
2022-11-15T00:36:14.620Z,13.30
2022-11-15T00:38:42.872Z,13.20
2022-11-15T00:41:11.513Z,13.20
2022-11-15T00:43:41.086Z,13.20
2022-11-15T00:46:10.797Z,13.20
2022-11-15T00:48:39.391Z,13.20
2022-11-15T00:51:07.822Z,13.20
2022-11-15T00:53:37.484Z,13.20
2022-11-15T00:56:05.938Z,13.20
2022-11-15T00:58:34.310Z,13.20
2022-11-15T01:01:09.299Z,13.20
2022-11-15T01:03:37.967Z,13.20
2022-11-15T01:06:06.340Z,13.20
2022-11-15T01:08:36.120Z,13.20
2022-11-15T01:11:05.271Z,13.10
2022-11-15T01:13:34.405Z,13.20
2022-11-15T01:16:08.918Z,13.10
2022-11-15T01:18:37.300Z,13.20
2022-11-15T01:21:10.200Z,13.10
2022-11-15T01:23:39.938Z,13.20
2022-11-15T01:26:12.759Z,13.20
2022-11-15T01:28:42.901Z,13.20
2022-11-15T01:31:14.881Z,13.20
2022-11-15T01:33:43.339Z,13.20
2022-11-15T01:36:16.237Z,13.20
2022-11-15T01:38:46.489Z,13.20
2022-11-15T01:41:20.335Z,13.10
2022-11-15T01:43:51.142Z,13.20
2022-11-15T01:46:29.387Z,13.20
2022-11-15T01:49:01.579Z,13.20
2022-11-15T01:51:33.010Z,13.20
2022-11-15T01:54:06.609Z,13.20
2022-11-15T01:56:39.681Z,13.20
2022-11-15T01:59:10.291Z,13.20
2022-11-15T02:01:39.263Z,13.20
2022-11-15T02:04:12.401Z,13.20
2022-11-15T02:06:42.002Z,13.20
2022-11-15T02:09:12.688Z,13.20
2022-11-15T02:11:41.055Z,13.20
2022-11-15T02:14:11.005Z,13.20
2022-11-15T02:16:51.022Z,13.20
2022-11-15T02:19:42.624Z,13.20
2022-11-15T02:22:26.786Z,13.20
2022-11-15T02:25:11.887Z,13.20
2022-11-15T02:28:10.375Z,13.20
2022-11-15T02:30:45.162Z,13.20
2022-11-15T02:33:23.564Z,13.20
2022-11-15T02:36:03.006Z,13.20
2022-11-15T02:38:40.055Z,13.30
2022-11-15T02:41:13.558Z,13.30
2022-11-15T02:43:58.656Z,13.20
2022-11-15T02:46:52.631Z,13.20
2022-11-15T02:49:21.773Z,13.30
2022-11-15T02:51:53.130Z,13.30
2022-11-15T02:54:24.233Z,13.30
2022-11-15T02:56:54.282Z,13.20
2022-11-15T02:59:46.169Z,13.30
2022-11-15T03:02:28.726Z,13.20
2022-11-15T03:05:00.733Z,13.30
2022-11-15T03:07:34.565Z,13.30
2022-11-15T03:10:11.825Z,13.30
2022-11-15T03:12:48.486Z,13.20
2022-11-15T03:15:22.929Z,13.20
2022-11-15T03:17:58.063Z,13.20
2022-11-15T03:20:28.778Z,13.20
2022-11-15T03:23:01.895Z,13.20
2022-11-15T03:25:31.783Z,13.10
2022-11-15T03:28:03.758Z,13.20
2022-11-15T03:30:34.313Z,13.20
2022-11-15T03:33:06.475Z,13.20
2022-11-15T03:35:39.541Z,13.20
2022-11-15T03:38:13.848Z,13.20
2022-11-15T03:40:43.752Z,13.20
2022-11-15T03:43:20.858Z,13.20
2022-11-15T03:45:54.619Z,13.20
2022-11-15T03:48:26.865Z,13.20
2022-11-15T03:50:55.580Z,13.10
2022-11-15T03:53:23.796Z,13.20
2022-11-15T03:55:52.056Z,13.20
2022-11-15T03:58:20.293Z,13.10
2022-11-15T04:00:48.623Z,13.10
2022-11-15T04:03:16.955Z,13.10
2022-11-15T04:05:46.573Z,13.10
2022-11-15T04:08:14.800Z,13.10
2022-11-15T04:10:43.072Z,13.10
2022-11-15T04:13:11.259Z,13.10
2022-11-15T04:15:39.611Z,13.10
2022-11-15T04:18:07.870Z,13.10
2022-11-15T04:20:53.465Z,13.10
2022-11-15T04:23:42.042Z,13.10
2022-11-15T04:26:13.208Z,13.10
2022-11-15T04:29:01.486Z,13.10
2022-11-15T04:31:30.326Z,13.10
2022-11-15T04:33:58.988Z,13.10
2022-11-15T04:36:44.675Z,13.10
2022-11-15T04:39:14.325Z,13.10
2022-11-15T04:41:42.551Z,13.00
2022-11-15T04:44:10.829Z,13.10
2022-11-15T04:46:39.087Z,13.10
2022-11-15T04:49:07.322Z,13.10
2022-11-15T04:51:35.595Z,13.10
2022-11-15T04:54:03.858Z,13.10
2022-11-15T04:56:33.508Z,13.10
2022-11-15T04:59:01.832Z,13.10
2022-11-15T05:01:30.109Z,13.00
2022-11-15T05:04:16.097Z,13.00
2022-11-15T05:06:44.308Z,13.00
2022-11-15T05:09:14.038Z,12.90
2022-11-15T05:11:43.885Z,13.00
2022-11-15T05:14:12.244Z,13.00
2022-11-15T05:16:40.822Z,13.00
2022-11-15T05:19:09.380Z,13.10
2022-11-15T05:21:38.142Z,13.10
2022-11-15T05:24:07.446Z,13.20
2022-11-15T05:26:36.574Z,13.20
2022-11-15T05:29:06.237Z,13.20
2022-11-15T05:31:34.473Z,13.30
2022-11-15T05:34:06.080Z,13.30
2022-11-15T05:36:37.855Z,13.30
2022-11-15T05:39:09.316Z,13.30
2022-11-15T05:41:41.562Z,13.30
2022-11-15T05:44:14.723Z,13.30
2022-11-15T05:46:43.862Z,13.30
2022-11-15T05:49:15.200Z,13.30
2022-11-15T05:51:46.931Z,13.20
2022-11-15T05:54:16.027Z,13.20
2022-11-15T05:56:44.957Z,13.10
2022-11-15T05:59:15.111Z,13.10
2022-11-15T06:01:43.812Z,13.10
2022-11-15T06:04:12.096Z,13.10
2022-11-15T06:06:40.323Z,13.10
2022-11-15T06:09:08.604Z,13.10
2022-11-15T06:11:36.826Z,13.10
2022-11-15T06:14:05.266Z,13.10
2022-11-15T06:16:34.922Z,13.20
2022-11-15T06:19:03.541Z,13.20
2022-11-15T06:21:31.804Z,13.20
2022-11-15T06:24:00.048Z,13.20
2022-11-15T06:26:31.374Z,13.20
2022-11-15T06:28:59.716Z,13.20
2022-11-15T06:31:27.959Z,13.10
2022-11-15T06:33:57.641Z,13.10
2022-11-15T06:36:25.827Z,13.20
2022-11-15T06:38:54.651Z,13.10
2022-11-15T06:41:23.159Z,13.20
2022-11-15T06:43:51.445Z,13.10
2022-11-15T06:46:19.713Z,13.10
2022-11-15T06:48:47.979Z,13.10
2022-11-15T06:51:17.616Z,13.10
2022-11-15T06:53:46.049Z,13.10
2022-11-15T06:56:14.516Z,13.10
2022-11-15T06:58:42.843Z,13.20
2022-11-15T07:01:12.954Z,13.10
2022-11-15T07:03:44.642Z,13.20
2022-11-15T07:06:12.897Z,13.10
2022-11-15T07:08:43.377Z,13.10
2022-11-15T07:11:11.701Z,13.10
2022-11-15T07:13:39.931Z,13.10
2022-11-15T07:16:09.942Z,13.10
2022-11-15T07:18:38.879Z,13.10
2022-11-15T07:21:08.726Z,13.00
2022-11-15T07:23:39.167Z,13.00
2022-11-15T07:26:09.206Z,13.00
2022-11-15T07:28:38.105Z,13.00
2022-11-15T07:31:07.686Z,13.00
2022-11-15T07:33:36.088Z,13.00
2022-11-15T07:36:05.319Z,13.00
2022-11-15T07:38:38.043Z,13.00
2022-11-15T07:41:10.926Z,13.00
2022-11-15T07:43:39.166Z,13.00
2022-11-15T07:46:10.486Z,12.90
2022-11-15T07:48:44.368Z,12.90
2022-11-15T07:51:14.951Z,12.90
2022-11-15T07:53:43.485Z,12.90
2022-11-15T07:56:13.832Z,12.80
2022-11-15T07:58:42.092Z,12.80
2022-11-15T08:01:11.938Z,12.80
2022-11-15T08:03:40.416Z,12.80
2022-11-15T08:06:08.769Z,12.80
2022-11-15T08:08:37.042Z,12.70
2022-11-15T08:11:05.498Z,12.70
2022-11-15T08:13:35.364Z,12.70
2022-11-15T08:16:06.542Z,12.70
2022-11-15T08:18:35.006Z,12.70
2022-11-15T08:21:03.922Z,12.70
2022-11-15T08:23:33.352Z,12.70
2022-11-15T08:26:03.787Z,12.60
2022-11-15T08:28:32.480Z,12.60
2022-11-15T08:31:02.177Z,12.60
2022-11-15T08:33:31.098Z,12.60
2022-11-15T08:35:59.979Z,12.60
2022-11-15T08:38:29.970Z,12.60
2022-11-15T08:41:04.026Z,12.60
2022-11-15T08:43:32.774Z,12.50
2022-11-15T08:46:02.579Z,12.50
2022-11-15T08:48:31.796Z,12.50
2022-11-15T08:51:03.839Z,12.50
2022-11-15T08:53:32.452Z,12.50
2022-11-15T08:56:00.728Z,12.50
2022-11-15T08:58:29.200Z,12.60
2022-11-15T09:00:57.773Z,12.50
2022-11-15T09:03:27.487Z,12.60
2022-11-15T09:05:58.080Z,12.60
2022-11-15T09:08:46.600Z,12.60
2022-11-15T09:11:15.637Z,12.60
2022-11-15T09:13:44.262Z,12.50
2022-11-15T09:16:13.090Z,12.50
2022-11-15T09:18:42.741Z,12.50
2022-11-15T09:21:11.536Z,12.50
2022-11-15T09:23:40.189Z,12.60
2022-11-15T09:26:08.639Z,12.60
2022-11-15T09:28:38.029Z,12.60
2022-11-15T09:31:08.329Z,12.60
2022-11-15T09:33:36.579Z,12.70
2022-11-15T09:36:08.754Z,12.60
2022-11-15T09:38:37.099Z,12.70
2022-11-15T09:41:28.158Z,12.60
2022-11-15T09:44:17.963Z,12.60
2022-11-15T09:46:58.280Z,12.60
2022-11-15T09:49:26.982Z,12.60
2022-11-15T09:51:57.065Z,12.50
2022-11-15T09:54:53.277Z,12.50
2022-11-15T09:57:23.524Z,12.50
2022-11-15T10:00:23.810Z,12.50
2022-11-15T10:03:03.130Z,12.60
2022-11-15T10:05:31.581Z,12.60
2022-11-15T10:08:08.434Z,12.60
2022-11-15T10:10:42.681Z,12.60
2022-11-15T10:13:25.065Z,12.70
2022-11-15T10:15:55.580Z,12.70
2022-11-15T10:18:32.391Z,12.70
2022-11-15T10:21:05.681Z,12.70
2022-11-15T10:23:35.303Z,12.70
2022-11-15T10:26:07.029Z,12.80
2022-11-15T10:28:36.001Z,12.80
2022-11-15T10:31:05.661Z,12.80
2022-11-15T10:33:35.927Z,12.80
2022-11-15T10:36:25.792Z,12.70
2022-11-15T10:39:00.068Z,12.70
2022-11-15T10:41:39.628Z,12.70
2022-11-15T10:44:24.152Z,12.60
2022-11-15T10:47:09.014Z,12.60
2022-11-15T10:49:37.522Z,12.60
2022-11-15T10:52:17.635Z,12.60
2022-11-15T10:54:50.744Z,12.60
2022-11-15T10:57:21.334Z,12.60
2022-11-15T10:59:51.804Z,12.60
2022-11-15T11:02:43.270Z,12.60
2022-11-15T11:05:30.063Z,12.60
2022-11-15T11:08:00.694Z,12.60
2022-11-15T11:10:53.413Z,12.60
2022-11-15T11:13:26.678Z,12.70
2022-11-15T11:16:02.233Z,12.70
2022-11-15T11:18:39.596Z,12.70
2022-11-15T11:21:13.749Z,12.70
2022-11-15T11:23:52.233Z,12.80
2022-11-15T11:26:42.913Z,12.80
2022-11-15T11:29:27.078Z,12.80
2022-11-15T11:32:05.302Z,12.80
2022-11-15T11:34:46.535Z,12.80
2022-11-15T11:37:22.451Z,12.80
2022-11-15T11:40:10.449Z,12.80
2022-11-15T11:42:55.123Z,12.80
2022-11-15T11:45:51.673Z,12.80
2022-11-15T11:48:31.509Z,12.70
2022-11-15T11:51:07.488Z,12.70
2022-11-15T11:53:42.901Z,12.70
2022-11-15T11:56:19.377Z,12.70
2022-11-15T11:58:50.289Z,12.70
2022-11-15T12:01:25.528Z,12.70
2022-11-15T12:04:07.142Z,12.70
2022-11-15T12:06:41.541Z,12.80
2022-11-15T12:09:17.529Z,12.80
2022-11-15T12:11:54.227Z,12.80
2022-11-15T12:14:32.016Z,12.90
2022-11-15T12:17:02.200Z,12.80
2022-11-15T12:19:31.853Z,12.80
2022-11-15T12:22:05.774Z,12.90
2022-11-15T12:24:41.435Z,12.80
2022-11-15T12:27:24.912Z,12.80
2022-11-15T12:29:58.559Z,12.80
2022-11-15T12:32:31.614Z,12.80
2022-11-15T12:35:00.550Z,12.70
2022-11-15T12:37:58.942Z,12.70
2022-11-15T12:40:29.528Z,12.70
2022-11-15T12:43:03.804Z,12.60
2022-11-15T12:45:34.718Z,12.60
2022-11-15T12:48:39.483Z,12.60
2022-11-15T12:51:11.228Z,12.60
2022-11-15T12:53:39.505Z,12.50
2022-11-15T12:56:25.148Z,12.50
2022-11-15T12:58:58.918Z,12.50
2022-11-15T13:02:09.910Z,12.40
2022-11-15T13:04:38.387Z,12.40
2022-11-15T13:07:09.558Z,12.40
2022-11-15T13:09:57.299Z,12.40
2022-11-15T13:12:52.004Z,12.40
2022-11-15T13:16:02.180Z,12.40
2022-11-15T13:18:34.155Z,12.40
2022-11-15T13:21:24.339Z,12.40
2022-11-15T13:23:56.928Z,12.30
2022-11-15T13:26:29.141Z,12.30
2022-11-15T13:28:57.503Z,12.30
2022-11-15T13:31:29.899Z,12.30
2022-11-15T13:34:02.452Z,12.40
2022-11-15T13:36:35.197Z,12.40
2022-11-15T13:39:07.584Z,12.40
2022-11-15T13:41:38.031Z,12.30
2022-11-15T13:44:20.704Z,12.30
2022-11-15T13:46:48.961Z,12.30
2022-11-15T13:49:17.443Z,12.40
2022-11-15T13:51:49.379Z,12.30
2022-11-15T13:54:23.172Z,12.30
2022-11-15T13:56:56.782Z,12.20
2022-11-15T13:59:28.739Z,12.30
2022-11-15T14:01:59.089Z,12.30
2022-11-15T14:04:30.790Z,12.30
2022-11-15T14:07:01.911Z,12.20
2022-11-15T14:09:39.759Z,12.20
2022-11-15T14:12:30.295Z,12.20
2022-11-15T14:14:59.014Z,12.10
2022-11-15T14:17:39.083Z,12.10
2022-11-15T14:20:27.976Z,12.10
2022-11-15T14:22:57.594Z,12.10
2022-11-15T14:25:28.489Z,12.10
2022-11-15T14:28:18.064Z,12.10
2022-11-15T14:30:51.140Z,12.10
2022-11-15T14:33:25.842Z,12.00
2022-11-15T14:35:54.594Z,12.00
2022-11-15T14:38:22.974Z,12.00
2022-11-15T14:40:53.194Z,12.00
2022-11-15T14:43:21.490Z,12.00
2022-11-15T14:45:49.969Z,12.00
2022-11-15T14:48:18.194Z,12.00
2022-11-15T14:50:46.945Z,12.00
2022-11-15T14:53:16.989Z,12.00
2022-11-15T14:55:45.236Z,12.00
2022-11-15T14:58:14.871Z,11.90
2022-11-15T15:00:43.700Z,11.90
2022-11-15T15:03:12.245Z,11.90
2022-11-15T15:05:43.118Z,11.90
2022-11-15T15:08:12.976Z,11.90
2022-11-15T15:10:44.488Z,11.90
2022-11-15T15:13:20.491Z,11.90
2022-11-15T15:15:49.844Z,11.90
2022-11-15T15:18:18.486Z,11.90
2022-11-15T15:20:56.147Z,11.90
2022-11-15T15:23:26.596Z,11.90
2022-11-15T15:25:54.956Z,11.90
2022-11-15T15:28:26.714Z,11.90
2022-11-15T15:30:58.207Z,11.80
2022-11-15T15:33:26.470Z,11.80
2022-11-15T15:35:54.893Z,11.90
2022-11-15T15:38:23.774Z,11.80
2022-11-15T15:40:52.057Z,11.80
2022-11-15T15:43:20.275Z,11.80
2022-11-15T15:45:50.133Z,11.80
2022-11-15T15:48:19.333Z,11.80
2022-11-15T15:50:48.333Z,11.70
2022-11-15T15:53:16.633Z,11.70
2022-11-15T15:55:44.932Z,11.70
2022-11-15T15:58:13.225Z,11.70
2022-11-15T16:00:44.297Z,11.70
2022-11-15T16:03:13.963Z,11.80
2022-11-15T16:05:42.240Z,11.70
2022-11-15T16:08:19.597Z,11.70
2022-11-15T16:10:48.729Z,11.80
2022-11-15T16:13:18.511Z,11.70
2022-11-15T16:15:49.638Z,11.70
2022-11-15T16:18:20.168Z,11.70
2022-11-15T16:20:53.034Z,11.70
2022-11-15T16:23:24.611Z,11.70
2022-11-15T16:25:56.413Z,11.70
2022-11-15T16:28:26.754Z,11.70
2022-11-15T16:31:03.440Z,11.60
2022-11-15T16:33:34.112Z,11.60
2022-11-15T16:36:03.136Z,11.60
2022-11-15T16:38:31.906Z,11.60
2022-11-15T16:41:00.551Z,11.60
2022-11-15T16:43:30.449Z,11.60
2022-11-15T16:45:58.731Z,11.60
2022-11-15T16:48:28.758Z,11.60
2022-11-15T16:50:59.460Z,11.60
2022-11-15T16:53:28.983Z,11.60
2022-11-15T16:55:58.024Z,11.60
2022-11-15T16:58:26.620Z,11.50
2022-11-15T17:00:56.165Z,11.40
2022-11-15T17:03:25.007Z,11.50
2022-11-15T17:05:53.652Z,11.50
2022-11-15T17:08:24.270Z,11.40
2022-11-15T17:11:00.671Z,11.40
2022-11-15T17:13:30.735Z,11.50
2022-11-15T17:16:06.371Z,11.40
2022-11-15T17:18:35.054Z,11.50
2022-11-15T17:21:06.825Z,11.40
2022-11-15T17:23:36.459Z,11.50
2022-11-15T17:26:28.194Z,11.50
2022-11-15T17:28:57.231Z,11.50
2022-11-15T17:31:26.267Z,11.50
2022-11-15T17:33:54.540Z,11.50
2022-11-15T17:36:22.934Z,11.40
2022-11-15T17:38:58.127Z,11.40
2022-11-15T17:41:28.163Z,11.40
2022-11-15T17:43:59.153Z,11.40
2022-11-15T17:46:28.345Z,11.40
2022-11-15T17:48:57.731Z,11.40
2022-11-15T17:51:26.346Z,11.40
2022-11-15T17:53:57.383Z,11.30
2022-11-15T17:56:28.580Z,11.40
2022-11-15T17:58:59.242Z,11.40
2022-11-15T18:01:29.155Z,11.40
2022-11-15T18:04:00.636Z,11.30
2022-11-15T18:06:31.668Z,11.40
2022-11-15T18:09:01.632Z,11.40
2022-11-15T18:11:32.818Z,11.40
2022-11-15T18:14:02.367Z,11.40
2022-11-15T18:16:36.158Z,11.40
2022-11-15T18:19:08.883Z,11.40
2022-11-15T18:21:56.324Z,11.30
2022-11-15T18:24:27.238Z,11.30
2022-11-15T18:26:55.795Z,11.30
2022-11-15T18:29:25.005Z,11.30
2022-11-15T18:31:56.112Z,11.30
2022-11-15T18:34:25.403Z,11.30
2022-11-15T18:36:54.241Z,11.20
2022-11-15T18:39:22.601Z,11.20
2022-11-15T18:41:52.358Z,11.20
2022-11-15T18:44:20.712Z,11.20
2022-11-15T18:46:49.680Z,11.20
2022-11-15T18:49:19.783Z,11.20
2022-11-15T18:51:50.096Z,11.20
2022-11-15T18:54:18.729Z,11.20
2022-11-15T18:56:48.400Z,11.20
2022-11-15T18:59:18.150Z,11.10
2022-11-15T19:01:48.642Z,11.10
2022-11-15T19:04:19.268Z,11.20
2022-11-15T19:06:49.145Z,11.10
2022-11-15T19:09:18.933Z,11.20
2022-11-15T19:11:48.725Z,11.20
2022-11-15T19:14:19.153Z,11.20
2022-11-15T19:16:52.338Z,11.20
2022-11-15T19:19:22.040Z,11.20
2022-11-15T19:21:50.325Z,11.20
2022-11-15T19:24:18.638Z,11.10
2022-11-15T19:26:48.218Z,11.10
2022-11-15T19:29:18.419Z,11.20
2022-11-15T19:31:48.610Z,11.10
2022-11-15T19:34:19.981Z,11.10
2022-11-15T19:36:48.468Z,11.00
2022-11-15T19:39:18.589Z,11.10
2022-11-15T19:41:47.151Z,11.10
2022-11-15T19:44:19.025Z,11.10
2022-11-15T19:46:47.436Z,11.10
2022-11-15T19:49:15.647Z,11.10
2022-11-15T19:51:45.259Z,11.20
2022-11-15T19:54:13.763Z,11.10
2022-11-15T19:56:42.003Z,11.20
2022-11-15T19:59:11.624Z,11.10
2022-11-15T20:01:42.171Z,11.10
2022-11-15T20:04:10.987Z,11.10
2022-11-15T20:06:41.336Z,11.10
2022-11-15T20:09:12.458Z,11.10
2022-11-15T20:11:40.845Z,11.10
2022-11-15T20:14:11.590Z,11.00
2022-11-15T20:16:41.282Z,11.10
2022-11-15T20:19:12.559Z,11.00
2022-11-15T20:21:41.042Z,11.10
2022-11-15T20:24:10.175Z,11.10
2022-11-15T20:26:39.332Z,11.00
2022-11-15T20:29:08.514Z,11.00
2022-11-15T20:31:36.986Z,11.10
2022-11-15T20:34:06.899Z,11.00
2022-11-15T20:36:35.242Z,11.00
2022-11-15T20:39:03.538Z,11.00
2022-11-15T20:41:31.787Z,11.00
2022-11-15T20:43:59.992Z,11.00
2022-11-15T20:46:28.191Z,11.00
2022-11-15T20:48:56.397Z,10.90
2022-11-15T20:51:26.071Z,10.90
2022-11-15T20:53:54.293Z,10.90
2022-11-15T20:56:23.252Z,11.00
2022-11-15T20:58:56.501Z,10.90
2022-11-15T21:01:25.616Z,10.90
2022-11-15T21:03:54.989Z,10.80
2022-11-15T21:06:23.917Z,10.80
2022-11-15T21:09:12.530Z,10.90
2022-11-15T21:11:58.960Z,10.90
2022-11-15T21:14:27.197Z,10.90
2022-11-15T21:16:55.466Z,10.90
2022-11-15T21:19:29.154Z,10.90
2022-11-15T21:22:03.289Z,10.90
2022-11-15T21:24:33.247Z,10.90
2022-11-15T21:27:04.453Z,10.80
2022-11-15T21:29:38.701Z,10.90
2022-11-15T21:32:08.306Z,10.80
2022-11-15T21:34:36.594Z,10.90
2022-11-15T21:37:05.456Z,10.90
2022-11-15T21:39:35.350Z,10.80
2022-11-15T21:42:03.793Z,10.80
2022-11-15T21:44:32.296Z,10.80
2022-11-15T21:47:00.537Z,10.80
2022-11-15T21:49:28.737Z,10.80
2022-11-15T21:51:57.017Z,10.80
2022-11-15T21:54:25.245Z,10.80
2022-11-15T21:56:54.864Z,10.70
2022-11-15T21:59:23.122Z,10.70
2022-11-15T22:02:08.711Z,10.70
2022-11-15T22:04:36.915Z,10.70
2022-11-15T22:07:05.195Z,10.70
2022-11-15T22:09:33.426Z,10.70
2022-11-15T22:12:03.034Z,10.70
2022-11-15T22:14:31.261Z,10.60
2022-11-15T22:16:59.486Z,10.60
2022-11-15T22:19:27.860Z,10.70
2022-11-15T22:21:56.224Z,10.70
2022-11-15T22:24:24.614Z,10.70
2022-11-15T22:26:52.953Z,10.60
2022-11-15T22:29:22.726Z,10.60
2022-11-15T22:31:51.107Z,10.70
2022-11-15T22:34:19.494Z,10.70
2022-11-15T22:37:18.380Z,10.70
2022-11-15T22:39:36.223Z,10.60
2022-11-15T22:42:04.602Z,10.60
2022-11-15T22:44:34.395Z,10.60
2022-11-15T22:47:02.766Z,10.60
2022-11-15T22:49:31.290Z,10.60
2022-11-15T22:51:59.707Z,10.60
2022-11-15T22:54:28.976Z,10.60
2022-11-15T22:56:57.398Z,10.60
2022-11-15T22:59:26.286Z,10.60
2022-11-15T23:01:56.112Z,10.70
2022-11-15T23:04:24.510Z,10.70
2022-11-15T23:06:53.026Z,10.70
2022-11-15T23:09:21.450Z,10.70
2022-11-15T23:12:07.526Z,10.70
2022-11-15T23:14:35.905Z,10.70
2022-11-15T23:17:05.663Z,10.70
2022-11-15T23:19:34.044Z,10.70
2022-11-15T23:22:19.829Z,10.70
2022-11-15T23:24:48.343Z,10.70
2022-11-15T23:27:20.065Z,10.80
2022-11-15T23:30:06.090Z,10.70
2022-11-15T23:32:53.445Z,10.70
2022-11-15T23:35:21.849Z,10.80
2022-11-15T23:37:50.175Z,10.80
2022-11-15T23:40:19.090Z,10.80
2022-11-15T23:42:47.480Z,10.80
2022-11-15T23:45:16.145Z,10.80
2022-11-15T23:47:46.482Z,10.80
2022-11-15T23:50:14.876Z,10.80
2022-11-15T23:52:43.251Z,10.90
2022-11-15T23:55:11.810Z,10.90
2022-11-15T23:57:40.202Z,10.90
